Phoenix, Arizona
Traffic Map
Current Weather Conditions
Phoenix, Arizona
Broken Clouds
Broken Clouds
86°
Feels Like: 86°
Wind Chill: 86° Ceiling: 25000
Heat Index: 86° Visibility: 10mi
Dew Point: 62° Wind: 6mph
Humidity: 44% Direction: 110° (ESE)
Pressure: 29.95in Gusts: 0mph
Raw Report DataKPHX 300951Z 11005KT 10SM SCT180 BKN250 30/17 A2995 RMK AO2 SLP121 T03000167
Traffic Incident Summary
Active as of:
Severity:
Category:
InformationThere was an issue retrieving the traffic information for this location. Please try a different location or try again shortly.
Advertisements
Track Severe Weather on mobile